createdAt,value
2019-05-12T00:00:22.068Z,1.57
2019-05-12T00:02:49.603Z,1.37
2019-05-12T00:05:19.254Z,1.50
2019-05-12T00:07:48.731Z,1.40
2019-05-12T00:10:21.383Z,2.00
2019-05-12T00:12:49.140Z,1.60
2019-05-12T00:15:19.212Z,1.20
2019-05-12T00:17:48.098Z,1.77
2019-05-12T00:20:18.133Z,1.47
2019-05-12T00:22:54.093Z,1.23
2019-05-12T00:25:21.635Z,2.00
2019-05-12T00:27:51.311Z,1.97
2019-05-12T00:30:33.215Z,1.40
2019-05-12T00:33:01.454Z,2.23
2019-05-12T00:35:34.254Z,1.63
2019-05-12T00:38:02.005Z,1.60
2019-05-12T00:40:30.109Z,1.80
2019-05-12T00:42:57.985Z,1.33
2019-05-12T00:45:29.222Z,1.50
2019-05-12T00:47:58.281Z,1.63
2019-05-12T00:50:28.636Z,1.43
2019-05-12T00:52:57.935Z,1.77
2019-05-12T00:55:28.366Z,2.13
2019-05-12T00:58:02.509Z,1.90
2019-05-12T01:00:31.355Z,1.33
2019-05-12T01:03:03.199Z,1.67
2019-05-12T01:05:30.628Z,1.50
2019-05-12T01:07:58.565Z,1.60
2019-05-12T01:10:28.984Z,1.97
2019-05-12T01:12:59.201Z,1.60
2019-05-12T01:15:28.644Z,1.60
2019-05-12T01:17:58.298Z,1.60
2019-05-12T01:20:31.000Z,2.07
2019-05-12T01:22:58.418Z,2.07
2019-05-12T01:25:33.254Z,1.70
2019-05-12T01:28:00.930Z,1.97
2019-05-12T01:30:28.761Z,1.60
2019-05-12T01:32:58.528Z,1.47
2019-05-12T01:35:28.472Z,2.23
2019-05-12T01:37:58.830Z,2.40
2019-05-12T01:40:28.664Z,2.10
2019-05-12T01:42:58.177Z,1.60
2019-05-12T01:45:28.739Z,1.83
2019-05-12T01:48:00.059Z,1.87
2019-05-12T01:50:28.409Z,1.60
2019-05-12T01:52:59.010Z,1.90
2019-05-12T01:55:28.137Z,1.90
2019-05-12T01:57:57.773Z,1.67
2019-05-12T02:00:27.883Z,1.63
2019-05-12T02:02:55.053Z,1.57
2019-05-12T02:05:24.898Z,2.20
2019-05-12T02:08:04.574Z,2.20
2019-05-12T02:10:38.877Z,2.10
2019-05-12T02:13:11.860Z,1.67
2019-05-12T02:15:41.417Z,2.07
2019-05-12T02:18:13.790Z,2.27
2019-05-12T02:20:41.231Z,1.50
2019-05-12T02:23:09.192Z,1.60
2019-05-12T02:25:38.050Z,1.50
2019-05-12T02:28:09.723Z,1.83
2019-05-12T02:30:40.786Z,1.70
2019-05-12T02:33:15.645Z,1.63
2019-05-12T02:35:44.412Z,1.90
2019-05-12T02:38:14.380Z,1.50
2019-05-12T02:40:41.098Z,1.30
2019-05-12T02:43:08.865Z,1.40
2019-05-12T02:45:36.336Z,1.87
2019-05-12T02:48:05.021Z,1.67
2019-05-12T02:50:35.929Z,1.60
2019-05-12T02:53:05.190Z,1.80
2019-05-12T02:55:34.893Z,1.40
2019-05-12T02:58:04.928Z,1.30
2019-05-12T03:00:36.616Z,1.30
2019-05-12T03:03:07.568Z,1.60
2019-05-12T03:05:44.377Z,2.10
2019-05-12T03:08:15.340Z,1.97
2019-05-12T03:10:47.738Z,2.00
2019-05-12T03:13:15.193Z,1.70
2019-05-12T03:15:44.575Z,1.57
2019-05-12T03:18:14.637Z,1.50
2019-05-12T03:20:45.474Z,2.10
2019-05-12T03:23:15.522Z,1.63
2019-05-12T03:25:45.612Z,1.70
2019-05-12T03:28:15.876Z,1.93
2019-05-12T03:30:47.569Z,2.10
2019-05-12T03:33:19.419Z,2.10
2019-05-12T03:35:52.382Z,1.60
2019-05-12T03:38:15.205Z,1.80
2019-05-12T03:40:44.994Z,1.40
2019-05-12T03:43:24.370Z,1.53
2019-05-12T03:45:55.849Z,1.80
2019-05-12T03:48:25.772Z,1.23
2019-05-12T03:50:54.107Z,1.50
2019-05-12T03:53:24.723Z,1.30
2019-05-12T03:55:55.270Z,1.33
2019-05-12T03:58:28.159Z,1.73
2019-05-12T04:00:58.011Z,1.40
2019-05-12T04:03:34.334Z,1.40
2019-05-12T04:06:00.597Z,1.70
2019-05-12T04:08:34.461Z,1.20
2019-05-12T04:11:05.327Z,1.57
2019-05-12T04:13:44.930Z,1.43
2019-05-12T04:16:18.143Z,1.20
2019-05-12T04:18:45.604Z,1.57
2019-05-12T04:21:15.654Z,1.27
2019-05-12T04:23:45.481Z,1.30
2019-05-12T04:26:16.760Z,1.90
2019-05-12T04:28:45.606Z,1.63
2019-05-12T04:31:15.515Z,1.60
2019-05-12T04:33:45.396Z,1.80
2019-05-12T04:36:14.904Z,1.80
2019-05-12T04:38:44.959Z,0.97
2019-05-12T04:41:14.610Z,1.83
2019-05-12T04:43:44.529Z,1.40
2019-05-12T04:46:10.468Z,1.40
2019-05-12T04:48:37.973Z,1.53
2019-05-12T04:51:15.170Z,1.37
2019-05-12T04:53:44.646Z,1.47
2019-05-12T04:56:19.346Z,1.30
2019-05-12T04:58:45.034Z,1.00
2019-05-12T05:01:15.465Z,1.40
2019-05-12T05:03:44.308Z,1.30
2019-05-12T05:06:15.578Z,1.30
2019-05-12T05:08:44.266Z,1.10
2019-05-12T05:11:14.823Z,1.57
2019-05-12T05:13:46.457Z,1.30
2019-05-12T05:16:14.569Z,1.50
2019-05-12T05:18:45.353Z,1.50
2019-05-12T05:21:13.909Z,1.50
2019-05-12T05:23:41.442Z,1.20
2019-05-12T05:26:21.033Z,1.30
2019-05-12T05:28:38.510Z,1.20
2019-05-12T05:31:05.964Z,1.30
2019-05-12T05:33:34.670Z,1.23
2019-05-12T05:36:03.455Z,1.20
2019-05-12T05:38:31.015Z,1.53
2019-05-12T05:40:59.795Z,1.20
2019-05-12T05:43:28.394Z,1.02
2019-05-12T05:46:02.503Z,1.10
2019-05-12T05:48:28.288Z,0.98
2019-05-12T05:51:00.001Z,1.00
2019-05-12T05:53:30.801Z,1.00
2019-05-12T05:56:00.175Z,1.07
2019-05-12T05:58:27.829Z,1.10
2019-05-12T06:01:02.960Z,0.90
2019-05-12T06:03:27.968Z,1.12
2019-05-12T06:05:55.854Z,0.85
2019-05-12T06:08:27.383Z,0.80
2019-05-12T06:10:55.458Z,0.88
2019-05-12T06:13:27.318Z,0.80
2019-05-12T06:15:54.840Z,1.07
2019-05-12T06:18:25.057Z,0.70
2019-05-12T06:20:54.115Z,0.80
2019-05-12T06:23:28.999Z,0.70
2019-05-12T06:25:55.752Z,0.47
2019-05-12T06:28:24.421Z,0.60
2019-05-12T06:30:58.296Z,0.70
2019-05-12T06:33:31.498Z,0.60
2019-05-12T06:35:57.077Z,0.50
2019-05-12T06:38:30.997Z,0.50
2019-05-12T06:40:56.803Z,0.60
2019-05-12T06:43:24.371Z,0.53
2019-05-12T06:45:56.314Z,0.50
2019-05-12T06:48:28.445Z,0.62
2019-05-12T06:50:53.529Z,0.42
2019-05-12T06:53:26.557Z,0.60
2019-05-12T06:55:50.320Z,0.70
2019-05-12T06:58:26.085Z,0.42
2019-05-12T07:00:46.876Z,0.60
2019-05-12T07:03:14.471Z,0.33
2019-05-12T07:05:43.241Z,0.57
2019-05-12T07:08:11.347Z,0.70
2019-05-12T07:10:43.381Z,0.53
2019-05-12T07:13:07.989Z,0.50
2019-05-12T07:15:40.127Z,0.87
2019-05-12T07:18:10.121Z,0.40
2019-05-12T07:20:38.976Z,0.70
2019-05-12T07:23:08.535Z,0.60
2019-05-12T07:25:36.796Z,0.70
2019-05-12T07:28:07.776Z,0.80
2019-05-12T07:30:35.088Z,0.63
2019-05-12T07:33:04.524Z,0.80
2019-05-12T07:35:34.098Z,0.70
2019-05-12T07:38:04.273Z,0.70
2019-05-12T07:40:34.691Z,0.90
2019-05-12T07:43:00.179Z,0.70
2019-05-12T07:45:27.650Z,0.60
2019-05-12T07:47:59.494Z,0.70
2019-05-12T07:50:27.199Z,0.70
2019-05-12T07:52:54.302Z,0.70
2019-05-12T07:55:23.684Z,0.80
2019-05-12T07:57:57.890Z,0.60
2019-05-12T08:00:21.631Z,0.73
2019-05-12T08:02:49.766Z,0.73
2019-05-12T08:05:20.068Z,1.20
2019-05-12T08:07:46.453Z,0.80
2019-05-12T08:10:18.370Z,0.97
2019-05-12T08:12:44.498Z,0.80
2019-05-12T08:15:14.084Z,0.97
2019-05-12T08:17:43.873Z,0.73
2019-05-12T08:20:13.518Z,0.97
2019-05-12T08:22:41.013Z,0.80
2019-05-12T08:25:13.500Z,0.63
2019-05-12T08:27:45.287Z,0.70
2019-05-12T08:30:13.660Z,0.70
2019-05-12T08:32:40.810Z,0.60
2019-05-12T08:35:09.145Z,0.70
2019-05-12T08:37:36.500Z,0.60
2019-05-12T08:40:07.720Z,0.70
2019-05-12T08:42:34.479Z,0.50
2019-05-12T08:45:04.488Z,0.80
2019-05-12T08:47:35.486Z,0.57
2019-05-12T08:50:04.600Z,0.73
2019-05-12T08:52:36.270Z,0.60
2019-05-12T08:55:00.052Z,0.50
2019-05-12T08:57:34.851Z,0.65
2019-05-12T09:00:02.847Z,0.60
2019-05-12T09:02:25.961Z,0.70
2019-05-12T09:04:55.702Z,0.80
2019-05-12T09:07:24.272Z,0.87
2019-05-12T09:09:53.391Z,0.80
2019-05-12T09:12:23.191Z,0.80
2019-05-12T09:14:50.516Z,1.30
2019-05-12T09:17:18.324Z,0.83
2019-05-12T09:19:46.111Z,0.83
2019-05-12T09:22:16.678Z,1.20
2019-05-12T09:24:44.100Z,1.30
2019-05-12T09:27:13.567Z,0.90
2019-05-12T09:29:43.456Z,1.10
2019-05-12T09:32:10.957Z,0.80
2019-05-12T09:34:38.403Z,1.10
2019-05-12T09:37:05.849Z,0.82
2019-05-12T09:39:42.057Z,1.17
2019-05-12T09:42:03.795Z,0.98
2019-05-12T09:44:31.364Z,0.95
2019-05-12T09:46:59.119Z,0.65
2019-05-12T09:49:31.508Z,0.60
2019-05-12T09:51:58.765Z,0.70
2019-05-12T09:54:35.599Z,0.90
2019-05-12T09:56:59.466Z,0.80
2019-05-12T09:59:25.888Z,0.80
2019-05-12T10:01:54.182Z,0.60
2019-05-12T10:04:21.592Z,0.57
2019-05-12T10:06:49.114Z,0.53
2019-05-12T10:09:19.909Z,0.80
2019-05-12T10:11:53.950Z,0.62
2019-05-12T10:14:18.095Z,0.60
2019-05-12T10:16:49.687Z,0.82
2019-05-12T10:19:15.095Z,0.70
2019-05-12T10:21:44.005Z,0.80
2019-05-12T10:24:12.157Z,0.70
2019-05-12T10:26:41.219Z,0.77
2019-05-12T10:29:17.502Z,1.00
2019-05-12T10:31:39.340Z,1.00
2019-05-12T10:34:18.942Z,1.27
2019-05-12T10:36:49.227Z,1.03
2019-05-12T10:39:16.870Z,1.20
2019-05-12T10:41:44.843Z,0.90
2019-05-12T10:44:13.907Z,1.00
2019-05-12T10:46:47.351Z,0.93
2019-05-12T10:49:14.807Z,1.10
2019-05-12T10:51:44.097Z,0.90
2019-05-12T10:54:13.086Z,1.02
2019-05-12T10:56:43.658Z,0.82
2019-05-12T10:59:27.150Z,1.00
2019-05-12T11:01:47.263Z,0.90
2019-05-12T11:04:14.309Z,0.80
2019-05-12T11:06:44.690Z,0.80
